createdAt,value
2017-11-03T00:02:03.763Z,16.23
2017-11-03T00:04:31.383Z,22.23
2017-11-03T00:06:59.060Z,25.57
2017-11-03T00:09:26.778Z,21.37
2017-11-03T00:11:54.397Z,27.40
2017-11-03T00:14:22.070Z,21.23
2017-11-03T00:16:49.735Z,22.37
2017-11-03T00:19:17.352Z,24.67
2017-11-03T00:21:45.015Z,25.37
2017-11-03T00:24:12.739Z,26.50
2017-11-03T00:26:40.345Z,20.10
2017-11-03T00:29:07.975Z,25.00
2017-11-03T00:31:35.647Z,22.23
2017-11-03T00:34:03.264Z,19.93
2017-11-03T00:36:30.871Z,23.30
2017-11-03T00:38:58.539Z,20.27
2017-11-03T00:41:26.148Z,19.97
2017-11-03T00:43:53.808Z,22.53
2017-11-03T00:46:21.523Z,20.93
2017-11-03T00:48:49.187Z,21.53
2017-11-03T00:51:16.851Z,22.97
2017-11-03T00:53:44.569Z,21.53
2017-11-03T00:56:12.167Z,27.17
2017-11-03T00:58:39.836Z,19.57
2017-11-03T01:01:07.499Z,24.93
2017-11-03T01:03:35.107Z,24.77
2017-11-03T01:06:02.731Z,22.57
2017-11-03T01:08:30.391Z,37.13
2017-11-03T01:10:58.008Z,25.23
2017-11-03T01:13:25.628Z,20.80
2017-11-03T01:15:53.348Z,16.23
2017-11-03T01:18:20.956Z,23.00
2017-11-03T01:20:48.568Z,20.40
2017-11-03T01:23:16.220Z,24.87
2017-11-03T01:25:43.832Z,25.33
2017-11-03T01:28:11.443Z,20.00
2017-11-03T01:30:39.115Z,20.40
2017-11-03T01:33:06.738Z,21.70
2017-11-03T01:35:34.355Z,22.37
2017-11-03T01:38:02.076Z,17.57
2017-11-03T01:40:29.751Z,18.33
2017-11-03T01:42:57.429Z,20.83
2017-11-03T01:45:25.159Z,20.93
2017-11-03T01:47:52.829Z,17.77
2017-11-03T01:50:20.439Z,18.50
2017-11-03T01:52:48.152Z,23.77
2017-11-03T01:55:15.769Z,25.47
2017-11-03T01:57:43.445Z,21.70
2017-11-03T02:00:11.133Z,23.60
2017-11-03T02:02:38.760Z,23.77
2017-11-03T02:05:06.452Z,18.83
2017-11-03T02:07:34.140Z,33.80
2017-11-03T02:10:01.765Z,23.80
2017-11-03T02:12:29.375Z,24.77
2017-11-03T02:14:57.028Z,22.17
2017-11-03T02:17:24.635Z,25.40
2017-11-03T02:19:52.320Z,20.67
2017-11-03T02:22:20.080Z,29.83
2017-11-03T02:24:47.687Z,22.67
2017-11-03T02:27:15.357Z,25.53
2017-11-03T02:29:43.982Z,16.37
2017-11-03T02:32:11.594Z,20.83
2017-11-03T02:34:39.215Z,20.53
2017-11-03T02:37:06.900Z,28.87
2017-11-03T02:39:34.540Z,22.60
2017-11-03T02:42:02.149Z,34.53
2017-11-03T02:44:29.831Z,22.27
2017-11-03T02:46:57.510Z,26.40
2017-11-03T02:49:25.179Z,23.07
2017-11-03T02:51:52.901Z,29.03
2017-11-03T02:54:20.560Z,13.97
2017-11-03T02:56:48.224Z,22.00
2017-11-03T02:59:15.894Z,20.10
2017-11-03T03:01:43.561Z,17.10
2017-11-03T03:04:11.163Z,15.80
2017-11-03T03:06:38.889Z,66.17
2017-11-03T03:09:06.504Z,53.73
2017-11-03T03:11:34.116Z,28.10
2017-11-03T03:14:01.788Z,23.83
2017-11-03T03:16:29.392Z,21.23
2017-11-03T03:18:57.000Z,18.50
2017-11-03T03:21:24.670Z,21.00
2017-11-03T03:23:52.331Z,22.43
2017-11-03T03:26:19.998Z,25.80
2017-11-03T03:28:47.646Z,16.77
2017-11-03T03:31:15.259Z,17.50
2017-11-03T03:33:42.956Z,20.13
2017-11-03T03:36:10.620Z,14.93
2017-11-03T03:38:38.244Z,14.77
2017-11-03T03:41:05.856Z,20.43
2017-11-03T03:43:33.563Z,17.30
2017-11-03T03:46:01.244Z,19.20
2017-11-03T03:48:28.916Z,16.63
2017-11-03T03:50:56.652Z,17.60
2017-11-03T03:53:24.275Z,20.20
2017-11-03T03:55:51.973Z,16.10
2017-11-03T03:58:19.663Z,21.00
2017-11-03T04:00:47.333Z,25.90
2017-11-03T04:03:15.019Z,31.57
2017-11-03T04:05:42.703Z,36.97
2017-11-03T04:08:10.303Z,26.77
2017-11-03T04:10:38.011Z,36.87
2017-11-03T04:13:05.696Z,45.60
2017-11-03T04:15:33.298Z,38.43
2017-11-03T04:18:00.983Z,72.17
2017-11-03T04:20:28.688Z,63.63
2017-11-03T04:22:56.312Z,73.87
2017-11-03T04:25:23.944Z,47.20
2017-11-03T04:27:51.684Z,86.13
2017-11-03T04:30:19.298Z,47.37
2017-11-03T04:32:46.976Z,43.00
2017-11-03T04:35:14.728Z,40.50
2017-11-03T04:37:42.412Z,53.37
2017-11-03T04:40:10.091Z,38.10
2017-11-03T04:42:37.762Z,55.03
2017-11-03T04:45:05.372Z,49.37
2017-11-03T04:47:32.983Z,69.13
2017-11-03T04:50:00.659Z,59.63
2017-11-03T04:52:28.338Z,44.50
2017-11-03T04:54:55.952Z,44.13
2017-11-03T04:57:23.623Z,38.30
2017-11-03T04:59:51.235Z,40.73
2017-11-03T05:02:18.852Z,42.83
2017-11-03T05:04:46.573Z,37.30
2017-11-03T05:07:14.244Z,42.50
2017-11-03T05:09:41.851Z,48.27
2017-11-03T05:12:09.523Z,44.67
2017-11-03T05:14:37.145Z,48.87
2017-11-03T05:17:04.763Z,42.10
2017-11-03T05:19:32.448Z,33.37
2017-11-03T05:22:00.060Z,33.07
2017-11-03T05:24:27.667Z,36.30
2017-11-03T05:26:55.344Z,40.43
2017-11-03T05:29:22.953Z,44.73
2017-11-03T05:31:50.588Z,29.73
2017-11-03T05:34:18.261Z,26.83
2017-11-03T05:36:45.898Z,21.47
2017-11-03T05:39:13.519Z,24.20
2017-11-03T05:41:41.192Z,24.30
2017-11-03T05:44:08.810Z,30.67
2017-11-03T05:46:36.496Z,19.13
2017-11-03T05:49:04.224Z,21.83
2017-11-03T05:51:31.832Z,26.97
2017-11-03T05:53:59.446Z,26.40
2017-11-03T05:56:27.113Z,21.50
2017-11-03T05:58:54.715Z,21.67
2017-11-03T06:01:22.333Z,19.53
2017-11-03T06:03:50.009Z,22.67
2017-11-03T06:06:17.672Z,16.50
2017-11-03T06:08:45.296Z,11.50
2017-11-03T06:11:12.960Z,24.10
2017-11-03T06:13:40.620Z,16.13
2017-11-03T06:16:08.227Z,18.70
2017-11-03T06:18:35.934Z,9.23
2017-11-03T06:21:03.597Z,17.00
2017-11-03T06:23:31.307Z,13.03
2017-11-03T06:25:58.972Z,13.07
2017-11-03T06:28:26.579Z,9.73
2017-11-03T06:30:54.188Z,9.30
2017-11-03T06:33:21.840Z,10.50
2017-11-03T06:35:49.450Z,8.30
2017-11-03T06:38:17.123Z,9.23
2017-11-03T06:40:44.849Z,12.47
2017-11-03T06:43:12.520Z,18.53
2017-11-03T06:45:40.126Z,23.63
2017-11-03T06:48:07.833Z,20.33
2017-11-03T06:50:35.508Z,40.27
2017-11-03T06:53:03.131Z,24.00
2017-11-03T06:55:30.803Z,18.40
2017-11-03T06:57:58.423Z,21.17
2017-11-03T07:00:26.047Z,20.37
2017-11-03T07:02:53.760Z,39.77
2017-11-03T07:05:21.367Z,26.13
2017-11-03T07:07:49.040Z,27.13
2017-11-03T07:10:16.732Z,18.53
2017-11-03T07:12:44.368Z,14.63
2017-11-03T07:15:11.985Z,11.67
2017-11-03T07:17:39.687Z,17.07
2017-11-03T07:20:07.371Z,13.60
2017-11-03T07:22:34.972Z,10.30
2017-11-03T07:25:02.693Z,11.90
2017-11-03T07:27:30.307Z,26.60
2017-11-03T07:29:57.930Z,33.40
2017-11-03T07:32:25.604Z,42.87
2017-11-03T07:34:53.230Z,38.50
2017-11-03T07:37:20.843Z,25.97
2017-11-03T07:39:48.575Z,46.17
2017-11-03T07:42:16.192Z,28.07
2017-11-03T07:44:43.933Z,55.07
2017-11-03T07:47:11.635Z,62.37
2017-11-03T07:49:39.299Z,50.57
2017-11-03T07:52:07.027Z,35.30
2017-11-03T07:54:34.701Z,28.97
2017-11-03T07:57:02.337Z,27.50
2017-11-03T07:59:29.951Z,28.93
2017-11-03T08:01:57.612Z,25.00
2017-11-03T08:04:25.224Z,14.10
2017-11-03T08:06:52.834Z,27.70
2017-11-03T08:09:20.509Z,28.80
2017-11-03T08:11:48.133Z,39.83
2017-11-03T08:14:15.803Z,40.90
2017-11-03T08:16:43.447Z,33.43
2017-11-03T08:19:11.121Z,30.83
2017-11-03T08:21:38.796Z,13.40
2017-11-03T08:24:06.452Z,22.93
2017-11-03T08:26:34.068Z,23.43
2017-11-03T08:29:01.747Z,17.83
2017-11-03T08:31:29.480Z,13.43
2017-11-03T08:33:57.156Z,14.37
2017-11-03T08:36:24.769Z,10.07
2017-11-03T08:38:52.520Z,38.40
2017-11-03T08:41:20.136Z,39.73
2017-11-03T08:43:47.809Z,57.93
2017-11-03T08:46:15.515Z,34.47
2017-11-03T08:48:43.192Z,32.20
2017-11-03T08:51:10.884Z,49.83
2017-11-03T08:53:38.619Z,46.93
2017-11-03T08:56:06.245Z,44.53
2017-11-03T08:58:33.920Z,36.60
2017-11-03T09:01:01.647Z,25.23
2017-11-03T09:03:29.260Z,31.13
2017-11-03T09:05:56.976Z,26.93
2017-11-03T09:08:24.672Z,35.60
2017-11-03T09:10:52.293Z,28.50
2017-11-03T09:13:19.930Z,24.40
2017-11-03T09:15:47.629Z,24.50
2017-11-03T09:18:15.253Z,23.30
2017-11-03T09:20:42.895Z,19.03
2017-11-03T09:23:10.582Z,20.60
2017-11-03T09:25:38.227Z,15.43
2017-11-03T09:28:05.847Z,19.73
2017-11-03T09:30:33.617Z,16.23
2017-11-03T09:33:01.310Z,20.17
2017-11-03T09:35:28.972Z,18.50
2017-11-03T09:37:56.707Z,40.97
2017-11-03T09:40:24.395Z,31.00
2017-11-03T09:42:52.056Z,37.43
2017-11-03T09:45:19.735Z,15.60
2017-11-03T09:47:47.344Z,15.93
2017-11-03T09:50:14.966Z,18.10
2017-11-03T09:52:42.688Z,12.63
2017-11-03T09:55:10.360Z,11.10
2017-11-03T09:57:37.977Z,16.43
2017-11-03T10:00:05.670Z,10.97
2017-11-03T10:02:33.313Z,16.50
2017-11-03T10:05:00.989Z,17.90
2017-11-03T10:07:28.674Z,15.90
2017-11-03T10:09:56.373Z,12.30
2017-11-03T10:12:24.037Z,27.77
2017-11-03T10:14:51.739Z,25.70
2017-11-03T10:17:19.361Z,19.70
2017-11-03T10:19:46.984Z,10.90
2017-11-03T10:22:14.655Z,16.03
2017-11-03T10:24:42.334Z,27.23
2017-11-03T10:27:09.945Z,22.33
2017-11-03T10:29:37.613Z,21.63
2017-11-03T10:32:05.285Z,29.07
2017-11-03T10:34:32.900Z,10.70
2017-11-03T10:37:00.615Z,13.80
2017-11-03T10:39:28.228Z,14.63
2017-11-03T10:41:55.856Z,10.50
2017-11-03T10:44:23.520Z,12.43
2017-11-03T10:46:51.201Z,16.47
2017-11-03T10:49:18.807Z,13.00
2017-11-03T10:51:46.614Z,7.90
2017-11-03T10:54:14.231Z,11.30
2017-11-03T10:56:41.852Z,11.50
2017-11-03T10:59:09.514Z,15.30
2017-11-03T11:01:37.172Z,15.90
2017-11-03T11:04:04.803Z,12.70
2017-11-03T11:06:32.545Z,21.57
2017-11-03T11:09:00.228Z,14.57
2017-11-03T11:11:27.912Z,21.37
2017-11-03T11:13:55.629Z,12.43
2017-11-03T11:16:23.300Z,22.13
2017-11-03T11:18:50.908Z,12.63
2017-11-03T11:21:18.598Z,18.77
2017-11-03T11:23:46.206Z,18.17
2017-11-03T11:26:13.899Z,14.37
2017-11-03T11:28:41.596Z,13.47
2017-11-03T11:31:09.208Z,15.30
2017-11-03T11:33:36.836Z,16.73
2017-11-03T11:36:04.548Z,14.50
2017-11-03T11:38:32.187Z,16.63
2017-11-03T11:40:59.807Z,17.83
2017-11-03T11:43:27.489Z,15.33
2017-11-03T11:45:55.198Z,15.53
2017-11-03T11:48:22.832Z,15.60
2017-11-03T11:50:50.532Z,14.47
2017-11-03T11:53:18.214Z,14.43
2017-11-03T11:55:45.900Z,13.80
2017-11-03T11:58:13.583Z,16.17
2017-11-03T12:00:41.402Z,27.07
2017-11-03T12:03:09.039Z,21.33
2017-11-03T12:05:36.715Z,15.70
2017-11-03T12:08:04.343Z,20.00
2017-11-03T12:10:32.027Z,17.60
2017-11-03T12:12:59.735Z,13.80
2017-11-03T12:15:27.362Z,16.60
2017-11-03T12:17:54.987Z,15.20
2017-11-03T12:20:22.728Z,14.90
2017-11-03T12:22:50.426Z,22.07
2017-11-03T12:25:18.102Z,16.00
2017-11-03T12:27:45.804Z,12.93
2017-11-03T12:30:13.443Z,13.60
2017-11-03T12:32:41.080Z,14.30
2017-11-03T12:35:08.837Z,17.43
2017-11-03T12:37:36.465Z,14.40
2017-11-03T12:40:04.099Z,20.17
2017-11-03T12:42:31.892Z,12.73
2017-11-03T12:44:59.514Z,11.87
2017-11-03T12:47:27.207Z,17.03
2017-11-03T12:49:54.885Z,23.10
2017-11-03T12:52:22.662Z,18.73
2017-11-03T12:54:50.284Z,13.77
2017-11-03T12:57:17.970Z,16.87
2017-11-03T12:59:45.600Z,13.57
2017-11-03T13:02:13.276Z,15.60
2017-11-03T13:04:40.974Z,14.07
2017-11-03T13:07:08.616Z,29.17
2017-11-03T13:09:36.316Z,26.77
2017-11-03T13:12:03.996Z,21.10
2017-11-03T13:14:31.672Z,26.83
2017-11-03T13:16:59.364Z,31.20
2017-11-03T13:19:27.044Z,46.20
2017-11-03T13:21:54.723Z,12.60
2017-11-03T13:24:22.410Z,25.80
2017-11-03T13:26:50.158Z,18.93
2017-11-03T13:29:17.848Z,24.30
2017-11-03T13:31:45.527Z,21.50
2017-11-03T13:34:13.232Z,22.30
2017-11-03T13:36:40.880Z,27.30
2017-11-03T13:39:08.506Z,25.43
2017-11-03T13:41:36.291Z,24.43
2017-11-03T13:44:04.028Z,36.10
2017-11-03T13:46:31.713Z,25.23
2017-11-03T13:48:59.443Z,28.63
2017-11-03T13:51:27.079Z,26.03
2017-11-03T13:53:54.713Z,22.60
2017-11-03T13:56:22.535Z,27.70
2017-11-03T13:58:50.219Z,21.53
2017-11-03T14:01:17.841Z,22.30
2017-11-03T14:03:46.547Z,22.77
2017-11-03T14:06:14.239Z,30.70
2017-11-03T14:08:41.892Z,22.27
2017-11-03T14:11:09.651Z,30.73
2017-11-03T14:13:37.276Z,35.33
2017-11-03T14:16:04.891Z,52.70
2017-11-03T14:18:32.573Z,35.27
2017-11-03T14:21:00.191Z,41.90
2017-11-03T14:23:27.864Z,42.33
2017-11-03T14:25:55.556Z,43.97
2017-11-03T14:28:23.160Z,46.87
2017-11-03T14:30:50.771Z,37.00
2017-11-03T14:33:18.435Z,29.33
2017-11-03T14:35:46.052Z,35.83
2017-11-03T14:38:13.684Z,45.27
2017-11-03T14:40:41.907Z,32.33
2017-11-03T14:43:09.524Z,27.37
2017-11-03T14:45:37.143Z,36.83
2017-11-03T14:48:05.267Z,31.97
2017-11-03T14:50:32.937Z,37.73
2017-11-03T14:53:00.558Z,28.20
2017-11-03T14:55:28.291Z,20.90
2017-11-03T14:57:55.973Z,24.87
2017-11-03T15:00:23.590Z,27.50
2017-11-03T15:02:51.271Z,25.00
2017-11-03T15:05:18.892Z,20.27
2017-11-03T15:07:47.331Z,29.47
2017-11-03T15:10:15.003Z,24.30
2017-11-03T15:12:43.504Z,34.77
2017-11-03T15:15:11.184Z,27.73
2017-11-03T15:17:39.503Z,25.43
2017-11-03T15:20:07.131Z,26.90
2017-11-03T15:22:34.796Z,38.97
2017-11-03T15:25:02.529Z,86.87
2017-11-03T15:27:30.209Z,51.50
2017-11-03T15:29:57.896Z,43.77
2017-11-03T15:32:25.627Z,45.07
2017-11-03T15:34:53.254Z,56.33
2017-11-03T15:37:20.902Z,51.77
2017-11-03T15:39:48.567Z,59.13
2017-11-03T15:42:16.185Z,41.80
2017-11-03T15:44:43.801Z,29.17
2017-11-03T15:47:11.471Z,22.80
2017-11-03T15:49:39.156Z,28.43
2017-11-03T15:52:06.836Z,35.13
2017-11-03T15:54:34.584Z,30.07
2017-11-03T15:57:02.194Z,30.90
2017-11-03T15:59:29.880Z,38.27
2017-11-03T16:01:57.636Z,30.17
2017-11-03T16:04:25.251Z,29.60
2017-11-03T16:06:52.871Z,43.07
2017-11-03T16:09:20.532Z,50.43
2017-11-03T16:11:48.212Z,32.23
2017-11-03T16:14:15.892Z,80.97
2017-11-03T16:16:43.640Z,28.50
2017-11-03T16:19:11.251Z,26.63
2017-11-03T16:21:38.880Z,25.67
2017-11-03T16:24:06.599Z,22.60
2017-11-03T16:26:34.284Z,26.13
2017-11-03T16:29:01.900Z,25.97
2017-11-03T16:31:29.571Z,26.40
2017-11-03T16:33:57.195Z,26.00
2017-11-03T16:36:24.816Z,26.90
2017-11-03T16:38:52.560Z,36.27
2017-11-03T16:41:20.180Z,28.17
2017-11-03T16:43:47.903Z,26.93
2017-11-03T16:46:15.642Z,41.10
2017-11-03T16:48:43.316Z,23.90
2017-11-03T16:51:10.940Z,27.20
2017-11-03T16:53:38.615Z,34.87
2017-11-03T16:56:06.359Z,35.57
2017-11-03T16:58:33.967Z,27.37
2017-11-03T17:01:01.657Z,31.93
2017-11-03T17:03:29.287Z,32.00
2017-11-03T17:05:56.908Z,34.50
2017-11-03T17:08:24.581Z,43.70
2017-11-03T17:10:52.208Z,40.83
2017-11-03T17:13:19.931Z,34.47
2017-11-03T17:15:47.670Z,27.93
2017-11-03T17:18:15.294Z,44.73
2017-11-03T17:20:42.968Z,29.90
2017-11-03T17:23:10.692Z,25.10
2017-11-03T17:25:38.360Z,33.87
2017-11-03T17:28:05.985Z,26.73
2017-11-03T17:30:33.743Z,23.03
2017-11-03T17:33:01.360Z,25.73
2017-11-03T17:35:28.969Z,21.90
2017-11-03T17:37:56.632Z,24.77
2017-11-03T17:40:24.243Z,29.50
2017-11-03T17:42:51.861Z,21.97
2017-11-03T17:45:19.535Z,29.83
2017-11-03T17:47:47.275Z,49.57
2017-11-03T17:50:14.899Z,57.63
2017-11-03T17:52:42.568Z,31.00
2017-11-03T17:55:10.181Z,21.57
2017-11-03T17:57:37.808Z,21.33
2017-11-03T18:00:05.564Z,25.40
2017-11-03T18:02:33.179Z,27.40
2017-11-03T18:05:00.820Z,21.00
2017-11-03T18:07:28.561Z,21.00
2017-11-03T18:09:56.304Z,32.03
2017-11-03T18:12:23.932Z,30.43
2017-11-03T18:14:51.612Z,19.43
2017-11-03T18:17:19.225Z,16.53
2017-11-03T18:19:46.867Z,17.30
2017-11-03T18:22:14.670Z,21.63
2017-11-03T18:24:42.376Z,20.33
2017-11-03T18:27:10.009Z,42.23
2017-11-03T18:29:37.834Z,49.17
2017-11-03T18:32:05.516Z,31.20
2017-11-03T18:34:33.154Z,20.27
2017-11-03T18:37:00.829Z,25.83
2017-11-03T18:39:28.500Z,22.27
2017-11-03T18:41:56.130Z,26.00
2017-11-03T18:44:23.800Z,37.80
2017-11-03T18:46:51.476Z,38.67
2017-11-03T18:49:19.215Z,29.73
2017-11-03T18:51:46.913Z,27.87
2017-11-03T18:54:14.624Z,31.80
2017-11-03T18:56:42.239Z,23.23
2017-11-03T18:59:09.927Z,29.97
2017-11-03T19:01:37.617Z,26.50
2017-11-03T19:04:05.252Z,20.30
2017-11-03T19:06:32.984Z,23.93
2017-11-03T19:09:00.619Z,27.50
2017-11-03T19:11:28.251Z,35.87
2017-11-03T19:13:55.939Z,27.73
2017-11-03T19:16:23.630Z,25.13
2017-11-03T19:18:51.252Z,28.47
2017-11-03T19:21:18.948Z,24.63
2017-11-03T19:23:46.627Z,23.00
2017-11-03T19:26:14.241Z,21.70
2017-11-03T19:28:41.923Z,23.73
2017-11-03T19:31:09.550Z,26.23
2017-11-03T19:33:37.187Z,28.60
2017-11-03T19:36:04.907Z,38.43
2017-11-03T19:38:32.579Z,25.93
2017-11-03T19:41:00.258Z,24.83
2017-11-03T19:43:27.939Z,27.70
2017-11-03T19:45:55.558Z,21.73
2017-11-03T19:48:23.211Z,19.03
2017-11-03T19:50:50.868Z,27.57
2017-11-03T19:53:18.502Z,32.40
2017-11-03T19:55:46.635Z,31.53
2017-11-03T19:58:14.364Z,33.37
2017-11-03T20:00:42.016Z,50.03
2017-11-03T20:03:09.642Z,38.20
2017-11-03T20:05:37.305Z,36.47
2017-11-03T20:08:05.017Z,29.63
2017-11-03T20:10:32.704Z,33.90
2017-11-03T20:13:00.384Z,31.10
2017-11-03T20:15:28.065Z,36.20
2017-11-03T20:17:55.752Z,38.37
2017-11-03T20:20:23.484Z,45.30
2017-11-03T20:22:51.096Z,54.03
2017-11-03T20:25:18.723Z,55.43
2017-11-03T20:27:46.409Z,46.73
2017-11-03T20:30:14.027Z,40.77
2017-11-03T20:32:41.660Z,60.20
2017-11-03T20:35:09.327Z,52.93
2017-11-03T20:37:36.957Z,44.80
2017-11-03T20:40:04.611Z,109.10
2017-11-03T20:42:32.351Z,39.17
2017-11-03T20:45:00.031Z,25.50
2017-11-03T20:47:27.646Z,30.83
2017-11-03T20:49:55.380Z,29.07
2017-11-03T20:52:23.010Z,24.33
2017-11-03T20:54:50.624Z,20.80
2017-11-03T20:57:18.633Z,17.70
2017-11-03T20:59:46.255Z,16.10
2017-11-03T21:02:13.938Z,22.67
2017-11-03T21:04:41.618Z,22.97
2017-11-03T21:07:09.302Z,22.10
2017-11-03T21:09:36.928Z,12.60
2017-11-03T21:12:04.627Z,15.23
2017-11-03T21:14:32.258Z,13.10
2017-11-03T21:16:59.883Z,10.93
2017-11-03T21:19:27.656Z,14.63
2017-11-03T21:21:55.327Z,12.53
2017-11-03T21:24:23.011Z,12.10
2017-11-03T21:26:50.679Z,9.97
2017-11-03T21:29:18.360Z,8.70
2017-11-03T21:31:45.975Z,9.53
2017-11-03T21:34:13.733Z,10.80
2017-11-03T21:36:41.348Z,21.17
2017-11-03T21:39:08.971Z,17.37
2017-11-03T21:41:36.641Z,12.77
2017-11-03T21:44:04.258Z,14.60
2017-11-03T21:46:31.932Z,17.27
2017-11-03T21:48:59.700Z,16.70
2017-11-03T21:51:27.317Z,14.60
2017-11-03T21:53:54.998Z,15.20
2017-11-03T21:56:22.670Z,11.10
2017-11-03T21:58:50.287Z,15.93
2017-11-03T22:01:17.899Z,18.47
2017-11-03T22:03:45.564Z,16.53
2017-11-03T22:06:13.248Z,17.73
2017-11-03T22:08:40.878Z,19.50
2017-11-03T22:11:08.552Z,20.77
2017-11-03T22:13:36.232Z,17.90
2017-11-03T22:16:04.041Z,18.83
2017-11-03T22:18:31.780Z,17.60
2017-11-03T22:20:59.395Z,15.70
2017-11-03T22:23:27.072Z,17.40
2017-11-03T22:25:54.820Z,19.73
2017-11-03T22:28:22.436Z,18.10
2017-11-03T22:30:50.121Z,22.50
2017-11-03T22:33:17.794Z,16.73
2017-11-03T22:35:45.399Z,15.10
2017-11-03T22:38:13.067Z,10.20
2017-11-03T22:40:40.727Z,16.20
2017-11-03T22:43:08.344Z,12.00
2017-11-03T22:45:35.967Z,13.33
2017-11-03T22:48:03.701Z,13.03
2017-11-03T22:50:31.391Z,10.40
2017-11-03T22:52:59.003Z,13.80
2017-11-03T22:55:26.729Z,11.83
2017-11-03T22:57:54.400Z,13.63
2017-11-03T23:00:22.011Z,13.30
2017-11-03T23:02:49.716Z,10.63
2017-11-03T23:05:17.326Z,12.80
2017-11-03T23:07:45.002Z,10.07
2017-11-03T23:10:12.726Z,9.50
2017-11-03T23:12:40.424Z,11.73
2017-11-03T23:15:08.109Z,11.40
2017-11-03T23:17:35.837Z,12.93
2017-11-03T23:20:03.571Z,11.67
2017-11-03T23:22:31.191Z,15.50
2017-11-03T23:24:58.857Z,16.27
2017-11-03T23:27:26.547Z,14.53
2017-11-03T23:29:54.236Z,15.43
2017-11-03T23:32:21.903Z,14.60
2017-11-03T23:34:49.580Z,16.33
2017-11-03T23:37:17.269Z,13.00
2017-11-03T23:39:44.932Z,13.60
2017-11-03T23:42:12.552Z,12.13
2017-11-03T23:44:40.163Z,12.43
2017-11-03T23:47:07.940Z,14.07
2017-11-03T23:49:35.559Z,17.70
2017-11-03T23:52:03.181Z,13.53
2017-11-03T23:54:30.924Z,19.23
2017-11-03T23:56:58.600Z,21.70
2017-11-03T23:59:26.232Z,25.60
